createdAt,value
2018-12-11T00:02:08.294Z,4.64
2018-12-11T00:04:35.885Z,4.66
2018-12-11T00:07:03.496Z,4.64
2018-12-11T00:09:36.103Z,4.62
2018-12-11T00:12:03.777Z,4.61
2018-12-11T00:14:31.197Z,4.61
2018-12-11T00:16:58.651Z,4.60
2018-12-11T00:19:26.184Z,4.61
2018-12-11T00:21:53.616Z,4.65
2018-12-11T00:24:21.032Z,4.70
2018-12-11T00:26:48.500Z,4.72
2018-12-11T00:29:15.912Z,4.77
2018-12-11T00:31:43.530Z,4.74
2018-12-11T00:34:10.939Z,4.76
2018-12-11T00:36:38.520Z,4.78
2018-12-11T00:39:06.444Z,4.83
2018-12-11T00:41:34.052Z,4.87
2018-12-11T00:44:01.547Z,4.90
2018-12-11T00:46:29.102Z,4.93
2018-12-11T00:48:56.530Z,4.99
2018-12-11T00:51:23.955Z,5.04
2018-12-11T00:53:51.367Z,5.04
2018-12-11T00:56:18.811Z,5.06
2018-12-11T00:58:51.279Z,5.05
2018-12-11T01:01:18.733Z,5.02
2018-12-11T01:03:46.185Z,5.03
2018-12-11T01:06:13.607Z,5.04
2018-12-11T01:08:41.109Z,5.03
2018-12-11T01:11:08.600Z,5.04
2018-12-11T01:13:36.023Z,5.07
2018-12-11T01:16:03.448Z,5.07
2018-12-11T01:18:30.878Z,5.09
2018-12-11T01:20:58.307Z,5.10
2018-12-11T01:23:25.758Z,5.15
2018-12-11T01:25:53.228Z,5.16
2018-12-11T01:28:20.672Z,5.18
2018-12-11T01:30:48.085Z,5.17
2018-12-11T01:33:15.523Z,5.16
2018-12-11T01:35:43.045Z,5.13
2018-12-11T01:38:10.459Z,5.10
2018-12-11T01:40:37.939Z,5.11
2018-12-11T01:43:05.376Z,5.11
2018-12-11T01:45:32.816Z,5.13
2018-12-11T01:48:00.290Z,5.14
2018-12-11T01:50:27.809Z,5.08
2018-12-11T01:52:55.314Z,5.03
2018-12-11T01:55:22.764Z,5.02
2018-12-11T01:57:50.218Z,5.02
2018-12-11T02:00:17.640Z,5.02
2018-12-11T02:02:45.084Z,5.03
2018-12-11T02:05:12.527Z,5.02
2018-12-11T02:07:39.945Z,4.96
2018-12-11T02:10:08.574Z,4.92
2018-12-11T02:12:41.175Z,4.87
2018-12-11T02:15:08.615Z,4.81
2018-12-11T02:17:36.019Z,4.76
2018-12-11T02:20:04.606Z,4.72
2018-12-11T02:22:32.032Z,4.70
2018-12-11T02:24:59.482Z,4.66
2018-12-11T02:27:26.906Z,4.65
2018-12-11T02:29:54.587Z,4.63
2018-12-11T02:32:22.019Z,4.61
2018-12-11T02:34:49.562Z,4.55
2018-12-11T02:37:16.976Z,4.50
2018-12-11T02:39:44.551Z,4.46
2018-12-11T02:42:11.988Z,4.43
2018-12-11T02:44:39.431Z,4.43
2018-12-11T02:47:06.902Z,4.44
2018-12-11T02:49:34.354Z,4.42
2018-12-11T02:52:01.795Z,4.37
2018-12-11T02:54:29.231Z,4.36
2018-12-11T02:56:56.656Z,4.38
2018-12-11T02:59:24.090Z,4.36
2018-12-11T03:01:51.546Z,4.33
2018-12-11T03:04:23.928Z,4.32
2018-12-11T03:06:51.398Z,4.34
2018-12-11T03:09:18.838Z,4.39
2018-12-11T03:11:46.271Z,4.46
2018-12-11T03:14:13.680Z,4.51
2018-12-11T03:16:46.321Z,4.48
2018-12-11T03:19:13.904Z,4.48
2018-12-11T03:21:41.351Z,4.51
2018-12-11T03:24:08.891Z,4.52
2018-12-11T03:26:36.433Z,4.51
2018-12-11T03:29:03.847Z,4.50
2018-12-11T03:31:31.393Z,4.49
2018-12-11T03:33:58.836Z,4.45
2018-12-11T03:36:26.360Z,4.43
2018-12-11T03:38:53.800Z,4.42
2018-12-11T03:41:21.302Z,4.42
2018-12-11T03:43:48.759Z,4.40
2018-12-11T03:46:16.172Z,4.43
2018-12-11T03:48:43.758Z,4.49
2018-12-11T03:51:11.286Z,4.52
2018-12-11T03:53:38.717Z,4.49
2018-12-11T03:56:06.126Z,4.49
2018-12-11T03:58:33.648Z,4.48
2018-12-11T04:01:01.073Z,4.51
2018-12-11T04:03:28.504Z,4.49
2018-12-11T04:05:55.918Z,4.48
2018-12-11T04:08:23.362Z,4.48
2018-12-11T04:10:50.788Z,4.48
2018-12-11T04:13:18.274Z,4.48
2018-12-11T04:15:45.736Z,4.52
2018-12-11T04:18:13.152Z,4.60
2018-12-11T04:20:40.681Z,4.65
2018-12-11T04:23:08.158Z,4.66
2018-12-11T04:25:35.809Z,4.67
2018-12-11T04:28:03.241Z,4.71
2018-12-11T04:30:30.675Z,4.73
2018-12-11T04:32:58.105Z,4.80
2018-12-11T04:35:26.608Z,4.83
2018-12-11T04:37:54.101Z,4.85
2018-12-11T04:40:21.533Z,4.82
2018-12-11T04:42:49.002Z,4.82
2018-12-11T04:45:16.430Z,4.81
2018-12-11T04:47:43.871Z,4.82
2018-12-11T04:50:11.319Z,4.85
2018-12-11T04:52:38.849Z,4.84
2018-12-11T04:55:06.605Z,4.81
2018-12-11T04:57:34.055Z,4.77
2018-12-11T05:00:01.475Z,4.75
2018-12-11T05:02:29.001Z,4.75
2018-12-11T05:04:56.664Z,4.77
2018-12-11T05:07:24.113Z,4.77
2018-12-11T05:09:51.539Z,4.77
2018-12-11T05:12:19.034Z,4.80
2018-12-11T05:14:46.454Z,4.84
2018-12-11T05:17:13.931Z,4.82
2018-12-11T05:19:41.336Z,4.82
2018-12-11T05:22:08.841Z,4.84
2018-12-11T05:24:36.639Z,4.88
2018-12-11T05:27:04.184Z,4.91
2018-12-11T05:29:31.744Z,4.94
2018-12-11T05:31:59.222Z,4.95
2018-12-11T05:34:26.655Z,4.98
2018-12-11T05:36:54.259Z,4.99
2018-12-11T05:39:21.688Z,5.00
2018-12-11T05:41:49.170Z,4.95
2018-12-11T05:44:16.591Z,4.90
2018-12-11T05:46:44.068Z,4.90
2018-12-11T05:49:11.535Z,4.92
2018-12-11T05:51:39.029Z,4.92
2018-12-11T05:54:06.472Z,4.87
2018-12-11T05:56:39.060Z,4.88
2018-12-11T05:59:06.499Z,4.91
2018-12-11T06:01:33.922Z,4.96
2018-12-11T06:04:01.461Z,4.99
2018-12-11T06:06:29.077Z,5.06
2018-12-11T06:08:56.526Z,5.10
2018-12-11T06:11:24.002Z,5.06
2018-12-11T06:13:51.445Z,5.04
2018-12-11T06:16:19.376Z,5.05
2018-12-11T06:18:46.840Z,5.10
2018-12-11T06:21:14.316Z,5.02
2018-12-11T06:23:41.767Z,4.90
2018-12-11T06:26:09.262Z,4.86
2018-12-11T06:28:36.673Z,4.88
2018-12-11T06:31:04.124Z,4.88
2018-12-11T06:33:31.569Z,4.89
2018-12-11T06:35:58.987Z,4.81
2018-12-11T06:38:26.571Z,4.75
2018-12-11T06:40:53.991Z,4.72
2018-12-11T06:43:21.413Z,4.73
2018-12-11T06:45:48.853Z,4.70
2018-12-11T06:48:16.447Z,4.65
2018-12-11T06:50:43.869Z,4.58
2018-12-11T06:53:11.280Z,4.51
2018-12-11T06:55:38.716Z,4.47
2018-12-11T06:58:06.128Z,4.44
2018-12-11T07:00:33.586Z,4.39
2018-12-11T07:03:00.997Z,4.37
2018-12-11T07:05:28.946Z,4.35
2018-12-11T07:07:56.365Z,4.34
2018-12-11T07:10:23.794Z,4.34
2018-12-11T07:12:51.238Z,4.35
2018-12-11T07:15:18.679Z,4.41
2018-12-11T07:17:46.133Z,4.44
2018-12-11T07:20:13.606Z,4.46
2018-12-11T07:22:41.042Z,4.49
2018-12-11T07:25:08.550Z,4.49
2018-12-11T07:27:35.976Z,4.50
2018-12-11T07:30:05.038Z,4.51
2018-12-11T07:32:32.467Z,4.57
2018-12-11T07:34:59.898Z,4.61
2018-12-11T07:37:27.337Z,4.61
2018-12-11T07:39:54.747Z,4.64
2018-12-11T07:42:22.189Z,4.65
2018-12-11T07:44:49.622Z,4.60
2018-12-11T07:47:17.035Z,4.59
2018-12-11T07:49:44.472Z,4.63
2018-12-11T07:52:11.900Z,4.60
2018-12-11T07:54:39.361Z,4.57
2018-12-11T07:57:06.801Z,4.54
2018-12-11T07:59:34.567Z,4.49
2018-12-11T08:02:02.000Z,4.43
2018-12-11T08:04:29.444Z,4.38
2018-12-11T08:06:57.003Z,4.38
2018-12-11T08:09:24.439Z,4.40
2018-12-11T08:11:51.862Z,4.39
2018-12-11T08:14:19.336Z,4.37
2018-12-11T08:16:46.845Z,4.35
2018-12-11T08:19:14.258Z,4.34
2018-12-11T08:21:41.784Z,4.33
2018-12-11T08:24:09.247Z,4.37
2018-12-11T08:26:36.680Z,4.36
2018-12-11T08:29:04.478Z,4.35
2018-12-11T08:31:32.277Z,4.35
2018-12-11T08:33:59.840Z,4.37
2018-12-11T08:36:27.280Z,4.40
2018-12-11T08:38:59.934Z,4.43
2018-12-11T08:41:27.398Z,4.44
2018-12-11T08:43:54.814Z,4.46
2018-12-11T08:46:22.289Z,4.49
2018-12-11T08:48:49.794Z,4.52
2018-12-11T08:51:17.228Z,4.53
2018-12-11T08:53:44.675Z,4.52
2018-12-11T08:56:12.124Z,4.53
2018-12-11T08:58:39.660Z,4.54
2018-12-11T09:01:08.187Z,4.58
2018-12-11T09:03:35.870Z,4.62
2018-12-11T09:06:03.359Z,4.64
2018-12-11T09:08:30.971Z,4.67
2018-12-11T09:10:58.403Z,4.71
2018-12-11T09:13:25.894Z,4.73
2018-12-11T09:15:53.319Z,4.77
2018-12-11T09:18:20.835Z,4.82
2018-12-11T09:20:48.303Z,4.90
2018-12-11T09:23:15.738Z,4.97
2018-12-11T09:25:43.161Z,5.04
2018-12-11T09:28:11.233Z,5.06
2018-12-11T09:30:39.179Z,5.10
2018-12-11T09:33:06.620Z,5.12
2018-12-11T09:35:34.143Z,5.09
2018-12-11T09:38:01.577Z,5.09
2018-12-11T09:40:29.027Z,5.11
2018-12-11T09:42:56.454Z,5.13
2018-12-11T09:45:23.864Z,5.20
2018-12-11T09:47:51.333Z,5.24
2018-12-11T09:50:18.782Z,5.25
2018-12-11T09:52:46.221Z,5.29
2018-12-11T09:55:13.647Z,5.36
2018-12-11T09:57:41.079Z,5.45
2018-12-11T10:00:08.616Z,5.56
2018-12-11T10:02:36.215Z,5.66
2018-12-11T10:05:04.206Z,5.78
2018-12-11T10:07:31.737Z,5.88
2018-12-11T10:09:59.170Z,5.97
2018-12-11T10:12:26.604Z,6.03
2018-12-11T10:14:54.046Z,6.08
2018-12-11T10:17:21.578Z,6.12
2018-12-11T10:19:49.140Z,6.15
2018-12-11T10:22:16.623Z,6.22
2018-12-11T10:24:44.060Z,6.28
2018-12-11T10:27:11.623Z,6.29
2018-12-11T10:29:39.192Z,6.32
2018-12-11T10:32:06.649Z,6.36
2018-12-11T10:34:34.114Z,6.37
2018-12-11T10:37:01.570Z,6.40
2018-12-11T10:39:28.982Z,6.40
2018-12-11T10:41:56.446Z,6.42
2018-12-11T10:44:23.860Z,6.45
2018-12-11T10:46:51.312Z,6.53
2018-12-11T10:49:18.741Z,6.55
2018-12-11T10:51:46.174Z,6.58
2018-12-11T10:54:13.664Z,6.61
2018-12-11T10:56:41.216Z,6.71
2018-12-11T10:59:08.679Z,6.77
2018-12-11T11:01:37.735Z,6.83
2018-12-11T11:04:05.565Z,6.86
2018-12-11T11:06:33.011Z,6.88
2018-12-11T11:09:00.557Z,6.92
2018-12-11T11:11:28.007Z,6.92
2018-12-11T11:13:55.484Z,6.90
2018-12-11T11:16:22.928Z,6.90
2018-12-11T11:18:50.348Z,6.99
2018-12-11T11:21:17.794Z,6.97
2018-12-11T11:23:45.234Z,6.95
2018-12-11T11:26:12.701Z,6.94
2018-12-11T11:28:40.143Z,6.94
2018-12-11T11:31:07.557Z,6.92
2018-12-11T11:33:35.036Z,7.02
2018-12-11T11:36:02.446Z,7.16
2018-12-11T11:38:29.976Z,7.22
2018-12-11T11:40:57.619Z,7.24
2018-12-11T11:43:25.114Z,7.18
2018-12-11T11:45:52.522Z,7.08
2018-12-11T11:48:19.964Z,7.00
2018-12-11T11:50:47.497Z,6.91
2018-12-11T11:53:14.938Z,6.87
2018-12-11T11:55:42.543Z,7.31
2018-12-11T11:58:09.978Z,8.01
2018-12-11T12:00:37.386Z,8.59
2018-12-11T12:03:04.969Z,9.02
2018-12-11T12:05:32.388Z,9.30
2018-12-11T12:08:00.128Z,9.57
2018-12-11T12:10:27.550Z,9.67
2018-12-11T12:12:54.995Z,9.85
2018-12-11T12:15:22.437Z,10.17
2018-12-11T12:17:50.023Z,10.51
2018-12-11T12:20:17.438Z,10.44
2018-12-11T12:22:44.878Z,9.93
2018-12-11T12:25:13.874Z,9.48
2018-12-11T12:27:41.311Z,9.28
2018-12-11T12:30:08.909Z,9.06
2018-12-11T12:32:36.394Z,8.76
2018-12-11T12:35:04.293Z,8.46
2018-12-11T12:37:31.931Z,8.24
2018-12-11T12:39:59.455Z,8.20
2018-12-11T12:42:26.875Z,8.29
2018-12-11T12:44:54.291Z,8.34
2018-12-11T12:47:21.838Z,8.44
2018-12-11T12:49:50.656Z,8.56
2018-12-11T12:52:18.543Z,8.51
2018-12-11T12:54:46.110Z,8.43
2018-12-11T12:57:13.636Z,8.34
2018-12-11T12:59:41.074Z,8.26
2018-12-11T13:02:08.508Z,8.52
2018-12-11T13:04:35.989Z,8.84
2018-12-11T13:07:03.548Z,8.94
2018-12-11T13:09:30.990Z,9.39
2018-12-11T13:11:58.435Z,9.78
2018-12-11T13:14:25.862Z,9.99
2018-12-11T13:16:53.326Z,10.00
2018-12-11T13:19:20.863Z,9.88
2018-12-11T13:21:48.861Z,9.79
2018-12-11T13:24:22.262Z,9.50
2018-12-11T13:26:50.136Z,9.19
2018-12-11T13:29:17.564Z,8.97
2018-12-11T13:31:45.014Z,8.75
2018-12-11T13:34:12.514Z,8.67
2018-12-11T13:36:39.974Z,8.57
2018-12-11T13:39:07.403Z,8.44
2018-12-11T13:41:34.856Z,8.24
2018-12-11T13:44:02.851Z,8.21
2018-12-11T13:46:30.591Z,8.25
2018-12-11T13:48:58.206Z,8.27
2018-12-11T13:51:25.745Z,8.17
2018-12-11T13:53:53.266Z,8.09
2018-12-11T13:56:20.778Z,8.19
2018-12-11T13:58:48.207Z,8.34
2018-12-11T14:01:15.655Z,8.38
2018-12-11T14:03:43.178Z,8.36
2018-12-11T14:06:10.666Z,8.28
2018-12-11T14:08:38.126Z,8.30
2018-12-11T14:11:05.708Z,8.34
2018-12-11T14:13:33.185Z,8.42
2018-12-11T14:16:00.611Z,8.49
2018-12-11T14:18:37.422Z,8.50
2018-12-11T14:21:02.528Z,8.39
2018-12-11T14:23:29.993Z,8.29
2018-12-11T14:25:57.409Z,8.15
2018-12-11T14:28:24.845Z,8.07
2018-12-11T14:30:52.336Z,8.00
2018-12-11T14:33:19.772Z,7.96
2018-12-11T14:35:47.197Z,7.92
2018-12-11T14:38:14.637Z,7.90
2018-12-11T14:40:42.062Z,7.86
2018-12-11T14:43:09.492Z,7.81
2018-12-11T14:45:41.841Z,7.75
2018-12-11T14:48:09.270Z,7.77
2018-12-11T14:50:41.842Z,7.74
2018-12-11T14:53:09.419Z,7.75
2018-12-11T14:55:36.851Z,7.74
2018-12-11T14:58:04.283Z,7.71
2018-12-11T15:00:31.702Z,7.69
2018-12-11T15:02:59.306Z,7.66
2018-12-11T15:05:27.003Z,7.64
2018-12-11T15:07:54.500Z,7.61
2018-12-11T15:10:22.070Z,7.54
2018-12-11T15:12:52.440Z,7.48
2018-12-11T15:15:19.893Z,7.43
2018-12-11T15:17:47.294Z,7.37
2018-12-11T15:20:15.022Z,7.32
2018-12-11T15:22:42.442Z,7.40
2018-12-11T15:25:09.888Z,7.47
2018-12-11T15:27:37.311Z,7.50
2018-12-11T15:30:05.206Z,7.47
2018-12-11T15:32:32.666Z,7.44
2018-12-11T15:35:00.124Z,7.43
2018-12-11T15:37:27.654Z,7.47
2018-12-11T15:39:55.187Z,7.51
2018-12-11T15:42:22.633Z,7.54
2018-12-11T15:44:50.056Z,7.55
2018-12-11T15:47:17.511Z,7.44
2018-12-11T15:49:44.961Z,7.16
2018-12-11T15:52:12.525Z,6.92
2018-12-11T15:54:39.934Z,6.67
2018-12-11T15:57:07.565Z,6.59
2018-12-11T15:59:35.002Z,6.60
2018-12-11T16:02:02.434Z,6.68
2018-12-11T16:04:29.973Z,6.75
2018-12-11T16:06:57.454Z,6.80
2018-12-11T16:09:39.456Z,6.86
2018-12-11T16:12:06.973Z,6.80
2018-12-11T16:14:34.550Z,6.85
2018-12-11T16:17:02.002Z,6.86
2018-12-11T16:19:29.499Z,6.91
2018-12-11T16:21:56.940Z,6.90
2018-12-11T16:24:24.382Z,6.88
2018-12-11T16:26:51.883Z,6.86
2018-12-11T16:29:19.326Z,6.86
2018-12-11T16:31:46.773Z,6.84
2018-12-11T16:34:14.210Z,6.78
2018-12-11T16:36:41.726Z,6.73
2018-12-11T16:39:09.180Z,6.68
2018-12-11T16:41:36.624Z,6.63
2018-12-11T16:44:04.096Z,6.62
2018-12-11T16:46:31.685Z,6.57
2018-12-11T16:48:59.138Z,6.55
2018-12-11T16:51:26.732Z,6.53
2018-12-11T16:53:54.191Z,6.54
2018-12-11T16:56:21.627Z,6.56
2018-12-11T16:58:49.132Z,6.58
2018-12-11T17:01:16.574Z,6.60
2018-12-11T17:03:44.053Z,6.61
2018-12-11T17:06:11.505Z,6.60
2018-12-11T17:08:38.956Z,6.60
2018-12-11T17:11:06.371Z,6.63
2018-12-11T17:13:33.829Z,6.64
2018-12-11T17:16:01.334Z,6.65
2018-12-11T17:18:28.876Z,6.67
2018-12-11T17:20:56.425Z,6.66
2018-12-11T17:23:23.911Z,6.66
2018-12-11T17:25:51.372Z,6.66
2018-12-11T17:28:18.789Z,6.66
2018-12-11T17:30:46.285Z,6.69
2018-12-11T17:33:13.829Z,6.67
2018-12-11T17:35:41.279Z,6.67
2018-12-11T17:38:08.738Z,6.67
2018-12-11T17:40:41.221Z,6.66
2018-12-11T17:43:09.009Z,6.66
2018-12-11T17:45:36.562Z,6.63
2018-12-11T17:48:04.362Z,6.59
2018-12-11T17:50:31.971Z,6.55
2018-12-11T17:52:59.425Z,6.55
2018-12-11T17:55:26.936Z,6.55
2018-12-11T17:57:54.398Z,6.56
2018-12-11T18:00:21.959Z,6.58
2018-12-11T18:02:49.719Z,6.56
2018-12-11T18:05:17.235Z,6.53
2018-12-11T18:07:44.670Z,6.51
2018-12-11T18:10:12.469Z,6.51
2018-12-11T18:12:39.935Z,6.51
2018-12-11T18:15:07.499Z,6.54
2018-12-11T18:17:34.962Z,6.49
2018-12-11T18:20:02.651Z,6.46
2018-12-11T18:22:30.088Z,6.48
2018-12-11T18:24:57.615Z,6.52
2018-12-11T18:27:25.051Z,6.55
2018-12-11T18:29:52.501Z,6.57
2018-12-11T18:32:25.077Z,6.58
2018-12-11T18:34:50.202Z,6.58
2018-12-11T18:37:17.619Z,6.60
2018-12-11T18:39:45.180Z,6.61
2018-12-11T18:42:12.599Z,6.63
2018-12-11T18:44:40.077Z,6.63
2018-12-11T18:47:07.515Z,6.59
2018-12-11T18:49:34.994Z,6.54
2018-12-11T18:52:02.461Z,6.55
2018-12-11T18:54:29.881Z,6.54
2018-12-11T18:56:57.451Z,6.53
2018-12-11T18:59:24.882Z,6.52
2018-12-11T19:01:52.324Z,6.48
2018-12-11T19:04:19.777Z,6.48
2018-12-11T19:06:47.219Z,6.47
2018-12-11T19:09:14.652Z,6.42
2018-12-11T19:11:42.092Z,6.39
2018-12-11T19:14:09.525Z,6.38
2018-12-11T19:16:37.007Z,6.39
2018-12-11T19:19:04.425Z,6.41
2018-12-11T19:21:31.897Z,6.39
2018-12-11T19:23:59.416Z,6.33
2018-12-11T19:26:26.957Z,6.30
2018-12-11T19:28:54.522Z,6.26
2018-12-11T19:31:21.985Z,6.24
2018-12-11T19:33:49.523Z,6.22
2018-12-11T19:36:16.978Z,6.25
2018-12-11T19:38:44.437Z,6.32
2018-12-11T19:41:12.444Z,6.33
2018-12-11T19:43:39.929Z,6.36
2018-12-11T19:46:11.463Z,6.38
2018-12-11T19:48:38.936Z,6.34
2018-12-11T19:51:06.374Z,6.34
2018-12-11T19:53:33.811Z,6.31
2018-12-11T19:56:01.671Z,6.36
2018-12-11T19:58:29.284Z,6.37
2018-12-11T20:00:56.720Z,6.37
2018-12-11T20:03:24.220Z,6.38
2018-12-11T20:05:51.859Z,6.41
2018-12-11T20:08:19.321Z,6.43
2018-12-11T20:10:48.738Z,6.36
2018-12-11T20:13:16.243Z,6.34
2018-12-11T20:15:43.661Z,6.38
2018-12-11T20:18:13.026Z,6.42
2018-12-11T20:20:40.621Z,6.41
2018-12-11T20:23:08.193Z,6.35
2018-12-11T20:25:35.729Z,6.26
2018-12-11T20:28:03.667Z,6.26
2018-12-11T20:30:31.206Z,6.27
2018-12-11T20:32:58.845Z,6.23
2018-12-11T20:35:26.523Z,6.26
2018-12-11T20:37:53.943Z,6.28
2018-12-11T20:40:21.449Z,6.32
2018-12-11T20:42:48.862Z,6.34
2018-12-11T20:45:16.604Z,6.34
2018-12-11T20:47:49.292Z,6.35
2018-12-11T20:50:16.913Z,6.32
2018-12-11T20:52:44.394Z,6.24
2018-12-11T20:55:11.824Z,6.18
2018-12-11T20:57:39.376Z,6.15
2018-12-11T21:00:08.923Z,6.18
2018-12-11T21:02:36.465Z,6.24
2018-12-11T21:05:04.370Z,6.30
2018-12-11T21:07:31.954Z,6.29
2018-12-11T21:09:59.534Z,6.29
2018-12-11T21:12:27.522Z,6.30
2018-12-11T21:14:54.953Z,6.28
2018-12-11T21:17:22.430Z,6.24
2018-12-11T21:19:49.934Z,6.19
2018-12-11T21:22:17.407Z,6.17
2018-12-11T21:24:44.921Z,6.17
2018-12-11T21:27:12.686Z,6.13
2018-12-11T21:29:40.173Z,6.07
2018-12-11T21:32:07.611Z,6.01
2018-12-11T21:34:35.428Z,5.97
2018-12-11T21:37:02.954Z,5.94
2018-12-11T21:39:30.420Z,5.90
2018-12-11T21:41:57.888Z,5.85
2018-12-11T21:44:25.574Z,5.79
2018-12-11T21:46:53.187Z,5.76
2018-12-11T21:49:20.645Z,5.75
2018-12-11T21:51:48.156Z,5.73
2018-12-11T21:54:15.632Z,5.70
2018-12-11T21:56:43.049Z,5.68
2018-12-11T21:59:10.516Z,5.67
2018-12-11T22:01:37.958Z,5.60
2018-12-11T22:04:05.661Z,5.54
2018-12-11T22:06:33.447Z,5.52
2018-12-11T22:09:01.019Z,5.46
2018-12-11T22:11:28.474Z,5.38
2018-12-11T22:13:55.919Z,5.35
2018-12-11T22:16:24.899Z,5.34
2018-12-11T22:18:52.342Z,5.34
2018-12-11T22:21:19.770Z,5.34
2018-12-11T22:23:47.270Z,5.35
2018-12-11T22:26:14.734Z,5.36
2018-12-11T22:28:42.195Z,5.36
2018-12-11T22:31:09.667Z,5.36
2018-12-11T22:33:37.321Z,5.34
2018-12-11T22:36:04.795Z,5.31
2018-12-11T22:38:32.373Z,5.29
2018-12-11T22:40:59.830Z,5.26
2018-12-11T22:43:27.490Z,5.25
2018-12-11T22:45:55.154Z,5.25
2018-12-11T22:48:22.850Z,5.24
2018-12-11T22:50:50.570Z,5.22
2018-12-11T22:53:18.033Z,5.21
2018-12-11T22:55:46.033Z,5.19
2018-12-11T22:58:13.458Z,5.18
2018-12-11T23:00:43.760Z,5.17
2018-12-11T23:03:11.315Z,5.15
2018-12-11T23:05:38.924Z,5.14
2018-12-11T23:08:06.485Z,5.13
2018-12-11T23:10:33.957Z,5.11
2018-12-11T23:13:01.547Z,5.09
2018-12-11T23:15:28.970Z,5.09
2018-12-11T23:17:56.437Z,5.07
2018-12-11T23:20:23.884Z,5.06
2018-12-11T23:22:54.139Z,5.03
2018-12-11T23:25:21.576Z,5.02
2018-12-11T23:27:49.018Z,5.01
2018-12-11T23:30:16.470Z,5.00
2018-12-11T23:32:44.007Z,4.98
2018-12-11T23:35:11.431Z,4.95
2018-12-11T23:37:39.038Z,4.94
2018-12-11T23:40:06.519Z,4.92
2018-12-11T23:42:34.666Z,4.90
2018-12-11T23:45:02.966Z,4.88
2018-12-11T23:47:31.346Z,4.88
2018-12-11T23:49:58.854Z,4.84
2018-12-11T23:52:26.289Z,4.80
2018-12-11T23:54:53.730Z,4.80
2018-12-11T23:57:21.162Z,4.74
2018-12-11T23:59:48.657Z,4.70
